Airfield :
LOGIN :

Register | Disclaimer

   EN    FR    IT 

 










Legend :    VFR   Marginal VFR   IFR   Intensive IFR   Very Intensive IFR
Visi :
Ceiling :
>= 8 km
>= 3000ft
5 to 8 km
1000 to 3000 ft
1500m to 5 km
500 to 1000 ft
800 to 1500m
200 to 500 ft
< 800m
< 200 ft
Symbols :   Thunderstorms  Fog  Heavy snow  Heavy precipitations  Wind > 20 kt
SIGMETs :     Misc.  Thunderstorms  Icing  Turbulence  Mountain Waves  Volcanic Ashes







- Airport Elevation : 364 ft
- IATA code : FRA


EDDF - Frankfurt Int.

CURRENT METAR :
  • 150020Z 19006KT 9999 -SHRA FEW004 FEW012CB BKN030 04/03 Q0991 TEMPO SHRA

EXPIRED METARs :
  • 142350Z 19007KT 9999 FEW004 SCT007 FEW012CB BKN020 04/03 Q0991 RESHRA TEMPO SHRA
  • 142320Z 16005KT 5000 SHRA SCT010 BKN016CB 04/03 Q0992 TEMPO NSW
  • 142250Z 16005KT 9999 -SHRA FEW010 SCT016CB BKN030 03/03 Q0992 RESHRA TEMPO SHRA
  • 142220Z 16008KT 7000 -SHRA FEW010 SCT018CB BKN030 03/03 Q0992 RESHRA TEMPO SHRA
  • 142150Z 16009KT 9999 -SHRA FEW010 SCT018CB BKN030 04/02 Q0993 NOSIG

TAF TAF EDDF
Valid from the 15 at 00:00 until the 16 at 06:00 UTC


142300Z 1500/1606 18010KT 9999 BKN035
TEMPO 1500/1503 SHRA BKN020CB
TEMPO 1510/1513 SHRA BKN025CB
BECMG 1516/1518 20005KT
PROB30
TEMPO 1600/1606 4000 -RASN BKN008
No reported NOTAMs for that airfield.



MET'MAP, your aeronautical weather chart ! - Copyright ORBIFLY December 2007 - Disclaimer

ORBIFLY MET'MAP TEAM :

Programming & Development : Alexandra Zaïnal
Concept & Development : Baudouin d'Aumeries
Co-Development & Prog : Marc-Olivier Méhu
Technical & hardware support : Manuel Goepfert

Contact : metmap@orbifly.com




SOURCES & CREDITS :

   NOAA